Time;durP1;ratioP1;P1;durP2;ratioP2;P2;SDS_P1;SDS_P2;PMS_P1;PMS_P2;Temp;Humidity;BMP_temperature;BMP_pressure;BME280_temperature;BME280_humidity;BME280_pressure;Samples;Min_cycle;Max_cycle;Signal;HPM_P1;HPM_P2
2022/11/15 00:00:48;;;;;;;7.82;6.00;;;7.90;99.90;;;;;;4894727;29;20493;-76
2022/11/15 00:03:18;;;;;;;7.47;5.55;;;7.90;99.90;;;;;;4894205;29;20147;-76
2022/11/15 00:05:44;;;;;;;8.05;6.28;;;7.90;99.90;;;;;;4879366;29;20072;-76
2022/11/15 00:08:10;;;;;;;7.25;5.60;;;7.90;99.90;;;;;;4879004;29;20087;-75
2022/11/15 00:10:37;;;;;;;8.40;5.53;;;7.80;99.90;;;;;;4893358;29;20049;-77
2022/11/15 00:13:20;;;;;;;9.52;6.32;;;7.80;99.90;;;;;;4909387;29;20051;-77
2022/11/15 00:15:46;;;;;;;7.78;5.80;;;7.70;99.90;;;;;;4911152;29;20052;-76
2022/11/15 00:18:15;;;;;;;6.30;4.93;;;7.60;99.90;;;;;;4879085;29;20102;-76
2022/11/15 00:20:42;;;;;;;5.80;4.70;;;7.60;99.90;;;;;;4895352;29;20048;-77
2022/11/15 00:23:08;;;;;;;5.30;4.35;;;7.50;99.90;;;;;;4894383;29;20051;-77
2022/11/15 00:25:34;;;;;;;6.20;5.07;;;7.40;99.90;;;;;;4878635;29;20108;-76
2022/11/15 00:28:01;;;;;;;5.97;4.13;;;7.40;99.90;;;;;;4886650;29;20049;-76
2022/11/15 00:30:27;;;;;;;8.05;6.13;;;7.40;99.90;;;;;;4893877;29;20127;-77
2022/11/15 00:32:53;;;;;;;;;;;7.30;99.90;;;;;;4878141;29;20084;-77
2022/11/15 00:35:19;;;;;;;7.55;5.95;;;7.30;99.90;;;;;;4859678;29;19943;-76
2022/11/15 00:37:47;;;;;;;7.18;5.22;;;7.30;99.90;;;;;;4859441;29;20108;-77
2022/11/15 00:40:13;;;;;;;8.02;6.18;;;7.20;99.90;;;;;;4875086;29;20060;-76
2022/11/15 00:42:39;;;;;;;7.18;6.03;;;7.30;99.90;;;;;;4891213;29;20053;-76
2022/11/15 00:45:05;;;;;;;7.97;6.15;;;7.30;99.90;;;;;;4892056;29;20056;-76
2022/11/15 00:47:31;;;;;;;8.18;6.22;;;7.40;99.90;;;;;;4871184;29;20037;-76
2022/11/15 00:49:56;;;;;;;7.75;5.80;;;7.40;99.90;;;;;;4878699;29;20048;-76
2022/11/15 00:52:22;;;;;;;7.88;6.32;;;7.40;99.90;;;;;;4878521;29;20171;-76
2022/11/15 00:54:48;;;;;;;9.90;7.18;;;7.50;99.90;;;;;;4877304;29;20233;-76
2022/11/15 00:57:14;;;;;;;12.07;8.77;;;7.50;99.90;;;;;;4893617;29;20143;-76
2022/11/15 00:59:39;;;;;;;10.07;7.72;;;7.50;99.90;;;;;;4881593;29;20052;-76
2022/11/15 01:02:05;;;;;;;11.70;8.27;;;7.60;99.90;;;;;;4898034;29;20053;-77
2022/11/15 01:04:31;;;;;;;9.10;7.22;;;7.60;99.90;;;;;;4864988;29;20532;-76
2022/11/15 01:06:56;;;;;;;8.50;6.78;;;7.60;99.90;;;;;;4896690;29;20049;-76
2022/11/15 01:09:22;;;;;;;10.23;7.57;;;7.60;99.90;;;;;;4895661;29;20040;-76
2022/11/15 01:11:48;;;;;;;9.70;7.85;;;7.60;99.90;;;;;;4879777;29;20088;-76
2022/11/15 01:14:13;;;;;;;8.80;7.25;;;7.60;99.90;;;;;;4895483;29;20055;-76
2022/11/15 01:16:39;;;;;;;12.73;9.57;;;7.60;99.90;;;;;;4880932;29;20503;-76
2022/11/15 01:19:05;;;;;;;13.60;9.88;;;7.60;99.90;;;;;;4896228;29;20135;-76
2022/11/15 01:21:30;;;;;;;10.90;8.75;;;7.60;99.90;;;;;;4880567;29;20540;-76
2022/11/15 01:23:57;;;;;;;11.27;8.95;;;7.60;99.90;;;;;;4896913;29;20433;-76
2022/11/15 01:26:23;;;;;;;;;;;7.60;99.90;;;;;;4897038;29;20087;-76
2022/11/15 01:28:49;;;;;;;10.75;8.20;;;7.50;99.90;;;;;;4894929;29;19933;-76
2022/11/15 01:31:18;;;;;;;11.50;8.52;;;7.50;99.90;;;;;;4889686;29;20036;-76
2022/11/15 01:33:44;;;;;;;12.00;9.13;;;7.50;99.90;;;;;;4878538;29;20040;-76
2022/11/15 01:36:15;;;;;;;13.88;10.30;;;7.50;99.90;;;;;;4895988;29;20040;-76
2022/11/15 01:38:41;;;;;;;15.02;12.38;;;7.50;99.90;;;;;;4879963;29;20132;-76
2022/11/15 01:41:13;;;;;;;14.95;11.68;;;7.50;99.90;;;;;;4883581;29;20573;-76
2022/11/15 01:43:39;;;;;;;13.88;11.02;;;7.50;99.90;;;;;;4880602;29;20052;-76
2022/11/15 01:46:20;;;;;;;;;;;7.50;99.90;;;;;;4896235;29;20064;-77
2022/11/15 01:48:46;;;;;;;16.23;12.73;;;7.50;99.90;;;;;;4895648;29;20385;-76
2022/11/15 01:51:15;;;;;;;15.63;12.00;;;7.50;99.90;;;;;;4895822;29;20040;-76
2022/11/15 01:53:45;;;;;;;15.75;10.85;;;7.50;99.90;;;;;;4893761;29;20049;-76
2022/11/15 01:56:17;;;;;;;13.18;10.75;;;7.50;99.90;;;;;;4895575;29;20062;-76
2022/11/15 01:58:45;;;;;;;12.98;9.52;;;7.50;99.90;;;;;;4880099;29;20123;-76
2022/11/15 02:01:12;;;;;;;15.50;10.60;;;7.50;99.90;;;;;;4879116;29;20071;-76
2022/11/15 02:03:58;;;;;;;14.82;10.30;;;7.50;99.90;;;;;;4892795;29;20048;-76
2022/11/15 02:06:24;;;;;;;15.40;11.77;;;7.50;99.90;;;;;;4878848;29;20036;-76
2022/11/15 02:08:51;;;;;;;14.50;10.65;;;7.40;99.90;;;;;;4895758;29;20052;-76
2022/11/15 02:11:17;;;;;;;15.57;11.55;;;7.40;99.90;;;;;;4863394;29;20124;-76
2022/11/15 02:13:43;;;;;;;14.10;10.85;;;7.50;99.90;;;;;;4893491;29;20135;-76
2022/11/15 02:16:29;;;;;;;14.75;10.95;;;7.40;99.90;;;;;;4896145;29;20048;-75
2022/11/15 02:19:13;;;;;;;15.60;11.60;;;7.40;99.90;;;;;;4849760;29;20187;-76
2022/11/15 02:21:56;;;;;;;16.75;11.88;;;7.40;99.90;;;;;;4894725;29;20056;-77
2022/11/15 02:24:45;;;;;;;16.10;11.85;;;7.40;99.90;;;;;;4893812;29;20139;-77
2022/11/15 02:27:36;;;;;;;15.38;11.45;;;7.40;99.90;;;;;;4882717;29;20057;-77
2022/11/15 02:30:38;;;;;;;15.90;12.48;;;7.40;99.90;;;;;;4878285;29;20081;-77
2022/11/15 02:33:24;;;;;;;17.00;11.55;;;7.40;99.90;;;;;;4835903;29;20471;-76
2022/11/15 02:36:00;;;;;;;13.57;10.48;;;7.40;99.90;;;;;;4894667;29;20067;-77
2022/11/15 02:38:29;;;;;;;13.57;10.05;;;7.40;99.90;;;;;;4906326;29;20051;-76
2022/11/15 02:41:04;;;;;;;13.95;9.70;;;7.40;99.90;;;;;;4896263;29;20044;-77
2022/11/15 02:43:57;;;;;;;13.52;10.00;;;7.40;99.90;;;;;;4877251;29;20486;-77
2022/11/15 02:49:24;;;;;;;11.57;8.70;;;7.40;99.90;;;;;;4894630;29;20168;-77
2022/11/15 02:51:52;;;;;;;17.17;12.38;;;7.40;99.90;;;;;;4879914;29;20100;-77
2022/11/15 02:54:24;;;;;;;13.75;9.80;;;7.40;99.90;;;;;;4903808;29;20068;-77
2022/11/15 02:56:53;;;;;;;14.00;10.05;;;7.40;99.90;;;;;;4891057;29;20135;-76
2022/11/15 02:59:27;;;;;;;15.25;10.23;;;7.40;99.90;;;;;;4893363;29;20067;-76
2022/11/15 03:02:21;;;;;;;17.25;10.65;;;7.40;99.90;;;;;;4895341;29;20183;-77
2022/11/15 03:05:07;;;;;;;15.30;10.25;;;7.40;99.90;;;;;;4885602;29;20052;-76
2022/11/15 03:07:42;;;;;;;14.55;9.25;;;7.40;99.90;;;;;;4894760;29;20103;-76
2022/11/15 03:10:08;;;;;;;13.65;9.45;;;7.30;99.90;;;;;;4893903;29;20045;-77
2022/11/15 03:12:51;;;;;;;11.63;8.43;;;7.40;99.90;;;;;;4892517;29;20047;-77
2022/11/15 03:15:23;;;;;;;11.65;8.57;;;7.40;99.90;;;;;;4878440;29;20387;-77
2022/11/15 03:17:55;;;;;;;13.05;8.82;;;7.40;99.90;;;;;;4863991;29;20108;-77
2022/11/15 03:20:21;;;;;;;11.80;8.25;;;7.40;99.90;;;;;;4893736;29;20693;-77
2022/11/15 03:22:49;;;;;;;14.57;10.07;;;7.40;99.90;;;;;;4890953;29;20151;-77
2022/11/15 03:25:22;;;;;;;15.90;10.10;;;7.40;99.90;;;;;;4878449;29;20165;-77
2022/11/15 03:27:52;;;;;;;15.77;9.82;;;7.40;99.90;;;;;;4894019;29;20061;-77
2022/11/15 03:30:18;;;;;;;11.70;7.95;;;7.50;99.90;;;;;;4877829;29;20049;-77
2022/11/15 03:32:49;;;;;;;14.82;9.85;;;7.50;99.90;;;;;;4894401;29;20045;-77
2022/11/15 03:35:24;;;;;;;13.88;9.20;;;7.50;99.90;;;;;;4894018;29;20091;-76
2022/11/15 03:38:11;;;;;;;14.50;9.18;;;7.50;99.90;;;;;;4879807;29;20119;-78
2022/11/15 03:40:40;;;;;;;13.75;8.90;;;7.50;99.90;;;;;;4879514;29;20044;-75
2022/11/15 03:43:43;;;;;;;13.70;9.00;;;7.50;99.90;;;;;;4877728;29;20162;-76
2022/11/15 03:46:33;;;;;;;13.25;8.60;;;7.60;99.90;;;;;;4877032;29;20081;-76
2022/11/15 03:49:13;;;;;;;12.75;8.45;;;7.60;99.90;;;;;;4876874;29;20048;-76
2022/11/15 03:51:40;;;;;;;14.65;9.65;;;7.60;99.90;;;;;;4893555;29;20124;-76
2022/11/15 03:54:06;;;;;;;11.38;8.35;;;7.60;99.90;;;;;;4892858;29;20064;-76
2022/11/15 03:56:32;;;;;;;13.60;8.73;;;7.60;99.90;;;;;;4894112;29;20464;-76
2022/11/15 03:58:58;;;;;;;12.45;7.63;;;7.60;99.90;;;;;;4878197;29;20391;-76
2022/11/15 04:01:23;;;;;;;11.75;6.85;;;7.70;99.90;;;;;;4893048;29;20055;-76
2022/11/15 04:03:49;;;;;;;9.27;6.00;;;7.60;99.90;;;;;;4890203;29;20041;-76
2022/11/15 04:06:15;;;;;;;10.20;6.47;;;7.70;99.90;;;;;;4888921;29;20048;-76
2022/11/15 04:08:40;;;;;;;9.85;6.30;;;7.70;99.90;;;;;;4882147;29;20055;-76
2022/11/15 04:11:07;;;;;;;9.27;6.20;;;7.70;99.90;;;;;;4900670;29;20080;-76
2022/11/15 04:13:33;;;;;;;9.35;6.25;;;7.70;99.90;;;;;;4892739;29;20050;-76
2022/11/15 04:15:58;;;;;;;9.88;5.93;;;7.70;99.90;;;;;;4864178;29;20055;-76
2022/11/15 04:18:24;;;;;;;12.82;8.05;;;7.80;99.90;;;;;;4892997;29;20052;-76
2022/11/15 04:26:21;;;;;;;14.13;8.30;;;7.90;99.90;;;;;;4899624;29;20116;-76
2022/11/15 04:31:30;;;;;;;12.50;8.45;;;7.90;99.90;;;;;;4892662;29;20112;-76
2022/11/15 04:33:56;;;;;;;13.27;8.18;;;7.90;99.90;;;;;;4875392;29;20515;-76
2022/11/15 04:39:07;;;;;;;13.10;9.18;;;7.90;99.90;;;;;;4897474;29;20049;-76
2022/11/15 04:41:33;;;;;;;13.70;8.32;;;7.90;99.90;;;;;;4895843;29;20052;-76
2022/11/15 04:43:59;;;;;;;11.57;7.55;;;7.90;99.90;;;;;;4887919;29;20067;-76
2022/11/15 04:46:25;;;;;;;13.80;8.65;;;8.00;99.90;;;;;;4899357;29;20091;-76
2022/11/15 04:48:51;;;;;;;;;;;8.00;99.90;;;;;;4866242;29;20072;-76
2022/11/15 04:51:17;;;;;;;11.30;7.40;;;8.00;99.90;;;;;;4897130;29;19951;-77
2022/11/15 04:53:43;;;;;;;13.90;8.65;;;8.00;99.90;;;;;;4879869;29;20064;-76
2022/11/15 04:56:09;;;;;;;13.85;8.70;;;8.00;99.90;;;;;;4884617;29;20040;-75
2022/11/15 04:58:35;;;;;;;13.13;8.02;;;8.10;99.90;;;;;;4897336;29;20052;-75
2022/11/15 05:01:08;;;;;;;16.00;9.57;;;8.10;99.90;;;;;;4895508;29;20483;-76
2022/11/15 05:06:19;;;;;;;11.30;7.35;;;8.10;99.90;;;;;;4896659;29;20095;-76
2022/11/15 05:08:44;;;;;;;11.63;6.97;;;8.10;99.90;;;;;;4880605;29;20516;-77
2022/11/15 05:11:10;;;;;;;12.93;8.02;;;8.20;99.90;;;;;;4895977;29;20044;-76
2022/11/15 05:13:36;;;;;;;11.18;7.18;;;8.20;99.90;;;;;;4887878;29;20119;-77
2022/11/15 05:16:01;;;;;;;17.70;10.45;;;8.20;99.90;;;;;;4899771;29;20485;-77
2022/11/15 05:18:27;;;;;;;12.98;8.25;;;8.20;99.90;;;;;;4899446;29;20040;-76
2022/11/15 05:20:53;;;;;;;15.57;9.35;;;8.20;99.90;;;;;;4881264;29;20480;-76
2022/11/15 05:23:18;;;;;;;14.88;8.60;;;8.30;99.90;;;;;;4903997;29;20041;-76
2022/11/15 05:25:44;;;;;;;16.63;10.15;;;8.30;99.90;;;;;;4895876;29;20049;-76
2022/11/15 05:28:10;;;;;;;20.88;11.65;;;8.30;99.90;;;;;;4896866;29;20135;-77
2022/11/15 05:30:35;;;;;;;20.95;11.85;;;8.30;99.90;;;;;;4879839;29;20064;-77
2022/11/15 05:33:01;;;;;;;18.83;10.48;;;8.30;99.90;;;;;;4896576;29;20116;-77
2022/11/15 05:35:39;;;;;;;17.08;10.00;;;8.30;99.90;;;;;;4896503;29;20125;-76
2022/11/15 05:38:05;;;;;;;17.80;10.15;;;8.30;99.90;;;;;;4900279;29;20476;-76
2022/11/15 05:40:32;;;;;;;14.10;9.15;;;8.40;99.90;;;;;;4895500;29;20056;-76
2022/11/15 05:43:01;;;;;;;14.88;8.82;;;8.40;99.90;;;;;;4897996;29;20056;-76
2022/11/15 05:45:27;;;;;;;17.58;10.00;;;8.40;99.90;;;;;;4879905;29;20112;-76
2022/11/15 05:47:54;;;;;;;;;;;8.40;99.90;;;;;;4896309;29;20044;-75
2022/11/15 05:50:19;;;;;;;14.90;9.38;;;8.50;99.90;;;;;;4899324;29;19927;-76
2022/11/15 05:52:46;;;;;;;17.15;10.43;;;8.50;99.90;;;;;;4879278;29;20068;-76
2022/11/15 05:55:12;;;;;;;15.10;9.85;;;8.50;99.90;;;;;;4893788;29;20051;-76
2022/11/15 05:57:38;;;;;;;;;;;8.50;99.90;;;;;;4893695;29;20052;-76
2022/11/15 06:00:04;;;;;;;19.55;10.90;;;8.60;99.90;;;;;;4895642;29;19923;-78
2022/11/15 06:02:30;;;;;;;19.23;11.60;;;8.60;99.90;;;;;;4896965;29;20045;-75
2022/11/15 06:04:56;;;;;;;16.15;9.80;;;8.70;99.90;;;;;;4878882;29;20050;-75
2022/11/15 06:07:22;;;;;;;15.35;9.07;;;8.70;99.90;;;;;;4879345;29;20043;-76
2022/11/15 06:09:47;;;;;;;15.27;9.23;;;8.70;99.90;;;;;;4862872;29;20052;-75
2022/11/15 06:12:13;;;;;;;17.65;10.38;;;8.80;99.90;;;;;;4893498;29;20047;-75
2022/11/15 06:14:39;;;;;;;14.65;8.98;;;8.80;99.90;;;;;;4892919;29;20048;-75
2022/11/15 06:17:04;;;;;;;13.57;8.30;;;8.80;99.90;;;;;;4899251;29;20299;-75
2022/11/15 06:19:32;;;;;;;13.38;8.73;;;8.90;99.90;;;;;;4892564;29;20506;-75
2022/11/15 06:22:01;;;;;;;14.63;8.90;;;8.80;99.90;;;;;;4877703;29;20418;-75
2022/11/15 06:24:27;;;;;;;14.10;9.20;;;8.90;99.90;;;;;;4881277;29;20078;-75
2022/11/15 06:26:52;;;;;;;15.00;8.93;;;8.90;99.90;;;;;;4893258;29;20048;-75
2022/11/15 06:29:18;;;;;;;13.80;8.27;;;8.90;99.90;;;;;;4898831;29;20037;-75
2022/11/15 06:31:44;;;;;;;12.07;7.28;;;9.00;99.90;;;;;;4880157;29;20511;-75
2022/11/15 06:34:09;;;;;;;14.25;8.90;;;9.10;99.90;;;;;;4892652;29;20052;-74
2022/11/15 06:36:36;;;;;;;14.98;8.60;;;9.20;99.90;;;;;;4895689;29;20187;-74
2022/11/15 06:39:03;;;;;;;14.10;9.00;;;9.10;99.90;;;;;;4878731;29;20058;-74
2022/11/15 06:41:28;;;;;;;12.98;8.32;;;9.20;99.90;;;;;;4886320;29;20095;-75
2022/11/15 06:43:54;;;;;;;18.38;10.30;;;9.20;99.90;;;;;;4892766;29;20400;-75
2022/11/15 06:46:20;;;;;;;16.80;10.38;;;9.30;99.90;;;;;;4875517;29;20460;-74
2022/11/15 06:48:45;;;;;;;15.65;9.13;;;9.40;99.90;;;;;;4878696;29;20076;-75
2022/11/15 06:51:11;;;;;;;16.00;10.43;;;9.40;99.90;;;;;;4893732;29;20040;-75
2022/11/15 06:53:37;;;;;;;13.55;9.18;;;9.40;99.90;;;;;;4907006;29;20407;-75
2022/11/15 06:56:06;;;;;;;13.05;8.50;;;9.50;99.90;;;;;;4881128;29;20036;-75
2022/11/15 06:58:32;;;;;;;13.35;8.63;;;9.50;99.90;;;;;;4879645;29;20108;-75
2022/11/15 07:01:03;;;;;;;12.20;8.55;;;9.50;99.90;;;;;;4883728;29;20037;-74
2022/11/15 07:03:29;;;;;;;13.23;9.05;;;9.50;99.90;;;;;;4865474;29;20081;-74
2022/11/15 07:05:56;;;;;;;14.88;10.13;;;9.60;99.90;;;;;;4862981;29;20044;-75
2022/11/15 07:08:23;;;;;;;17.92;10.55;;;9.60;99.90;;;;;;4893385;29;20083;-76
2022/11/15 07:10:49;;;;;;;12.15;8.27;;;9.70;99.90;;;;;;4892677;29;20052;-76
2022/11/15 07:13:15;;;;;;;15.32;10.18;;;9.70;99.90;;;;;;4894661;29;20084;-76
2022/11/15 07:15:40;;;;;;;15.10;10.27;;;9.60;99.90;;;;;;4880110;29;20044;-76
2022/11/15 07:18:06;;;;;;;13.23;9.38;;;9.80;99.90;;;;;;4879585;29;20048;-70
2022/11/15 07:20:32;;;;;;;11.90;8.45;;;9.80;99.90;;;;;;4895507;29;20119;-70
2022/11/15 07:23:02;;;;;;;15.75;10.20;;;9.80;99.90;;;;;;4905319;29;20476;-69
2022/11/15 07:25:28;;;;;;;13.38;9.23;;;9.80;99.90;;;;;;4893399;29;20036;-70
2022/11/15 07:27:57;;;;;;;14.52;10.27;;;9.80;99.90;;;;;;4880899;29;20407;-70
2022/11/15 07:30:24;;;;;;;13.23;9.10;;;9.90;99.90;;;;;;4911700;29;20079;-69
2022/11/15 07:32:53;;;;;;;;;;;9.80;99.90;;;;;;4888508;29;20060;-69
2022/11/15 07:35:19;;;;;;;15.93;10.27;;;9.90;99.90;;;;;;4893843;29;20006;-69
2022/11/15 07:37:56;;;;;;;15.80;10.48;;;9.90;99.90;;;;;;4892778;29;20488;-69
2022/11/15 07:40:22;;;;;;;;;;;9.90;99.90;;;;;;4877858;29;20040;-70
2022/11/15 07:42:53;;;;;;;14.82;9.65;;;10.00;99.90;;;;;;4891605;29;19919;-69
2022/11/15 07:45:20;;;;;;;15.00;10.50;;;10.00;99.90;;;;;;4893049;29;20061;-70
2022/11/15 07:47:47;;;;;;;16.00;9.18;;;10.10;99.90;;;;;;4846812;29;20040;-69
2022/11/15 07:50:13;;;;;;;12.05;8.52;;;10.10;99.90;;;;;;4891066;29;20036;-70
2022/11/15 07:52:38;;;;;;;13.02;8.88;;;10.20;99.90;;;;;;4873794;29;20054;-71
2022/11/15 07:55:05;;;;;;;15.32;10.20;;;10.10;99.90;;;;;;4877764;29;20532;-71
2022/11/15 07:57:30;;;;;;;15.85;10.90;;;10.20;99.90;;;;;;4892366;29;20044;-71
2022/11/15 07:59:56;;;;;;;13.30;8.95;;;10.10;99.90;;;;;;4891671;29;21924;-70
2022/11/15 08:02:22;;;;;;;11.43;8.48;;;10.20;99.90;;;;;;4888390;29;20131;-70
2022/11/15 08:04:47;;;;;;;13.25;9.40;;;10.20;99.90;;;;;;4890010;29;20054;-69
2022/11/15 08:07:13;;;;;;;18.02;10.73;;;10.30;99.90;;;;;;4890514;29;20127;-69
2022/11/15 08:09:39;;;;;;;12.68;8.85;;;10.30;99.90;;;;;;4907848;29;20480;-69
2022/11/15 08:12:05;;;;;;;15.73;10.27;;;10.30;99.90;;;;;;4912802;29;20111;-69
2022/11/15 08:14:31;;;;;;;14.68;10.63;;;10.30;99.90;;;;;;4867082;29;20437;-69
2022/11/15 08:16:56;;;;;;;16.13;10.68;;;10.40;99.90;;;;;;4898254;29;20112;-69
2022/11/15 08:19:22;;;;;;;13.70;9.43;;;10.50;99.90;;;;;;4866310;29;20056;-69
2022/11/15 08:21:48;;;;;;;12.43;8.93;;;10.40;99.90;;;;;;4899093;29;20044;-70
2022/11/15 08:24:14;;;;;;;13.65;9.65;;;10.50;99.90;;;;;;4898017;29;20048;-69
2022/11/15 08:26:39;;;;;;;11.38;8.18;;;10.50;99.90;;;;;;4882001;29;20135;-70
2022/11/15 08:29:08;;;;;;;12.77;9.13;;;10.50;99.90;;;;;;4910627;29;20044;-69
2022/11/15 08:31:36;;;;;;;12.43;9.23;;;10.60;99.90;;;;;;4913358;29;20083;-69
2022/11/15 08:34:05;;;;;;;15.30;10.95;;;10.70;99.90;;;;;;4915692;29;20127;-70
2022/11/15 08:36:31;;;;;;;12.77;9.95;;;10.70;99.90;;;;;;4903555;29;20071;-69
2022/11/15 08:38:57;;;;;;;13.95;9.50;;;10.80;99.90;;;;;;4909790;29;20056;-69
2022/11/15 08:41:30;;;;;;;11.70;9.00;;;10.70;99.90;;;;;;4896675;29;20059;-69
2022/11/15 08:43:55;;;;;;;12.63;9.30;;;10.80;99.90;;;;;;4916145;29;20044;-70
2022/11/15 08:46:21;;;;;;;12.55;9.98;;;10.80;99.90;;;;;;4916220;29;20044;-69
2022/11/15 08:48:47;;;;;;;12.63;9.43;;;10.90;99.90;;;;;;4916390;29;20127;-70
2022/11/15 08:51:13;;;;;;;11.27;8.20;;;10.90;99.90;;;;;;4896953;29;20062;-70
2022/11/15 08:53:39;;;;;;;9.45;6.93;;;10.90;99.90;;;;;;4897384;29;20051;-69
2022/11/15 08:56:08;;;;;;;9.85;7.72;;;11.00;99.90;;;;;;4898230;29;20045;-70
2022/11/15 08:58:35;;;;;;;9.93;7.63;;;10.90;99.90;;;;;;4900539;29;20051;-70
2022/11/15 09:01:01;;;;;;;8.65;6.95;;;11.00;99.90;;;;;;4892792;29;20538;-70
2022/11/15 09:03:26;;;;;;;12.60;9.48;;;11.10;99.90;;;;;;4915828;29;20180;-71
2022/11/15 09:06:00;;;;;;;13.00;9.07;;;11.10;99.90;;;;;;4914368;29;20054;-70
2022/11/15 09:08:30;;;;;;;12.90;9.85;;;11.20;99.90;;;;;;4878693;29;20049;-71
2022/11/15 09:10:55;;;;;;;10.50;8.23;;;11.20;99.90;;;;;;4898268;29;20040;-70
2022/11/15 09:13:22;;;;;;;8.52;7.50;;;11.30;99.90;;;;;;4896843;29;20506;-71
2022/11/15 09:15:47;;;;;;;;;;;11.40;99.90;;;;;;4907091;29;20047;-70
2022/11/15 09:18:13;;;;;;;8.50;7.43;;;11.40;99.90;;;;;;4915963;29;19923;-72
2022/11/15 09:20:39;;;;;;;8.35;6.68;;;11.50;99.90;;;;;;4899974;29;20492;-70
2022/11/15 09:23:05;;;;;;;9.40;6.65;;;11.60;99.90;;;;;;4913582;29;20138;-70
2022/11/15 09:25:31;;;;;;;;;;;11.60;99.90;;;;;;4900809;29;20040;-71
2022/11/15 09:27:57;;;;;;;11.48;8.30;;;11.60;99.90;;;;;;4906293;29;19972;-78
2022/11/15 09:30:24;;;;;;;11.07;8.30;;;11.60;99.90;;;;;;4879512;29;20045;-69
2022/11/15 09:32:50;;;;;;;10.43;8.20;;;11.60;99.90;;;;;;4893658;29;20076;-76
2022/11/15 09:35:16;;;;;;;8.20;6.88;;;11.60;99.90;;;;;;4879864;29;20055;-75
2022/11/15 09:37:42;;;;;;;8.93;6.93;;;11.70;99.90;;;;;;4893479;29;20074;-77
2022/11/15 09:40:16;;;;;;;9.60;7.93;;;11.70;99.90;;;;;;4899261;29;20052;-76
2022/11/15 09:43:00;;;;;;;9.43;7.18;;;11.70;99.90;;;;;;4883775;29;20090;-76
2022/11/15 09:45:54;;;;;;;6.72;5.50;;;11.70;99.90;;;;;;4893915;29;20044;-76
2022/11/15 09:48:45;;;;;;;7.10;5.53;;;11.70;99.90;;;;;;4840925;29;20059;-76
2022/11/15 09:51:50;;;;;;;8.48;6.10;;;11.80;99.90;;;;;;4896368;29;20059;-77
2022/11/15 09:54:21;;;;;;;9.32;6.68;;;11.80;99.90;;;;;;4883865;29;20144;-76
2022/11/15 09:56:47;;;;;;;9.57;6.22;;;11.90;99.90;;;;;;4900688;29;20492;-77
2022/11/15 09:59:25;;;;;;;8.30;7.00;;;11.90;99.90;;;;;;4904854;29;20128;-77
2022/11/15 10:02:18;;;;;;;10.75;8.15;;;11.90;99.90;;;;;;4894754;29;20052;-77
2022/11/15 10:04:44;;;;;;;10.85;7.35;;;11.90;99.90;;;;;;4894824;29;20136;-76
2022/11/15 10:07:31;;;;;;;8.68;6.82;;;11.90;99.90;;;;;;4879773;29;20127;-77
2022/11/15 10:10:01;;;;;;;;;;;11.90;99.90;;;;;;4874557;29;20045;-76
2022/11/15 10:12:28;;;;;;;8.95;7.93;;;11.80;99.90;;;;;;4893649;29;20022;-76
2022/11/15 10:15:15;;;;;;;9.50;7.47;;;11.80;99.90;;;;;;4894880;29;20071;-76
2022/11/15 10:18:05;;;;;;;9.13;7.07;;;11.80;99.90;;;;;;4900958;29;21895;-70
2022/11/15 10:20:40;;;;;;;8.98;6.72;;;11.80;99.90;;;;;;4897445;29;20083;-70
2022/11/15 10:23:10;;;;;;;10.35;7.30;;;11.90;99.90;;;;;;4897618;29;20381;-70
2022/11/15 10:25:36;;;;;;;8.07;6.35;;;11.90;99.90;;;;;;4898199;29;20464;-71
2022/11/15 10:28:17;;;;;;;8.75;6.47;;;11.90;99.90;;;;;;4878769;29;20045;-69
2022/11/15 10:30:46;;;;;;;6.22;5.00;;;12.00;99.90;;;;;;4879984;29;20408;-70
2022/11/15 10:33:35;;;;;;;6.75;5.20;;;12.00;99.90;;;;;;4894136;29;20067;-69
2022/11/15 10:36:14;;;;;;;7.03;5.15;;;12.00;99.90;;;;;;4891166;29;20082;-70
2022/11/15 10:38:49;;;;;;;7.00;5.20;;;12.00;99.90;;;;;;4890022;29;20049;-69
2022/11/15 10:41:42;;;;;;;6.90;4.97;;;12.00;99.90;;;;;;4893162;29;20041;-70
2022/11/15 10:44:19;;;;;;;6.90;5.05;;;12.00;99.90;;;;;;4884667;29;20056;-69
2022/11/15 10:47:19;;;;;;;6.88;5.90;;;12.00;99.90;;;;;;4878325;29;20710;-70
2022/11/15 10:49:58;;;;;;;8.82;6.65;;;12.00;99.90;;;;;;4903519;29;20417;-70
2022/11/15 10:52:24;;;;;;;6.95;5.28;;;12.00;99.90;;;;;;4890822;29;20067;-71
2022/11/15 10:54:56;;;;;;;8.38;6.10;;;12.00;99.90;;;;;;4879192;29;20139;-71
2022/11/15 10:57:25;;;;;;;7.85;6.00;;;12.10;99.90;;;;;;4905343;29;20080;-71
2022/11/15 11:00:06;;;;;;;5.43;4.50;;;12.10;99.90;;;;;;4905440;29;20076;-71
2022/11/15 11:02:35;;;;;;;6.20;4.80;;;12.10;99.90;;;;;;4895817;29;20461;-72
2022/11/15 11:05:02;;;;;;;7.28;5.38;;;12.10;99.90;;;;;;4894041;29;20044;-71
2022/11/15 11:07:32;;;;;;;5.90;5.30;;;12.20;99.90;;;;;;4891013;29;20060;-71
2022/11/15 11:10:04;;;;;;;6.75;5.28;;;12.20;99.90;;;;;;4882877;29;20047;-72
2022/11/15 11:12:32;;;;;;;7.30;5.07;;;12.20;99.90;;;;;;4901668;29;20124;-72
2022/11/15 11:15:11;;;;;;;7.35;6.25;;;12.20;99.90;;;;;;4894097;29;20151;-70
2022/11/15 11:18:04;;;;;;;6.22;4.57;;;12.30;99.90;;;;;;4877388;29;20319;-71
2022/11/15 11:20:58;;;;;;;6.53;5.88;;;12.30;99.90;;;;;;4893875;29;20048;-70
2022/11/15 11:23:30;;;;;;;5.75;4.68;;;12.50;99.90;;;;;;4895922;29;20464;-70
2022/11/15 11:26:03;;;;;;;8.15;5.68;;;12.70;99.90;;;;;;4892364;29;20049;-69
2022/11/15 11:28:37;;;;;;;5.90;5.13;;;12.70;99.90;;;;;;4891358;29;20049;-70
2022/11/15 11:31:22;;;;;;;5.80;4.63;;;12.70;99.90;;;;;;4876966;29;20060;-70
2022/11/15 11:34:03;;;;;;;4.78;4.20;;;12.80;99.90;;;;;;4896496;29;20032;-71
2022/11/15 11:37:14;;;;;;;4.40;3.70;;;12.80;99.90;;;;;;4893542;29;20083;-69
2022/11/15 11:40:16;;;;;;;4.80;3.42;;;12.80;99.90;;;;;;4864865;29;20048;-70
2022/11/15 11:43:01;;;;;;;5.22;3.80;;;12.80;99.90;;;;;;4880956;29;20048;-70
2022/11/15 11:45:36;;;;;;;5.55;4.00;;;12.90;99.90;;;;;;4892468;29;20060;-70
2022/11/15 11:48:07;;;;;;;5.78;4.57;;;13.20;99.90;;;;;;4891201;29;20115;-70
2022/11/15 11:50:37;;;;;;;5.90;4.32;;;13.20;99.90;;;;;;4891656;29;20162;-70
2022/11/15 11:53:12;;;;;;;5.55;4.50;;;13.20;99.90;;;;;;4898117;29;20060;-70
2022/11/15 11:55:45;;;;;;;5.75;4.35;;;13.20;99.90;;;;;;4898507;29;20120;-70
2022/11/15 11:58:32;;;;;;;5.28;4.45;;;13.30;99.90;;;;;;4892120;29;20050;-70
2022/11/15 12:01:10;;;;;;;5.57;4.97;;;13.30;99.90;;;;;;4876411;29;20050;-69
2022/11/15 12:03:48;;;;;;;5.38;4.57;;;13.20;99.90;;;;;;4902541;29;20052;-70
2022/11/15 12:06:40;;;;;;;6.45;4.60;;;13.20;99.90;;;;;;4895784;29;20147;-70
2022/11/15 12:09:33;;;;;;;6.07;4.18;;;13.10;99.90;;;;;;4893611;29;20037;-71
2022/11/15 12:12:22;;;;;;;5.43;3.55;;;13.10;99.90;;;;;;4894686;29;20083;-76
2022/11/15 12:14:54;;;;;;;5.00;3.65;;;13.30;99.90;;;;;;4893907;29;20053;-75
2022/11/15 12:17:24;;;;;;;4.10;2.88;;;13.40;99.90;;;;;;4894380;29;20060;-76
2022/11/15 12:20:03;;;;;;;3.88;2.40;;;13.30;99.90;;;;;;4882636;29;20518;-76
2022/11/15 12:22:52;;;;;;;2.53;1.98;;;13.30;99.90;;;;;;4901978;29;20056;-76
2022/11/15 12:25:32;;;;;;;2.83;1.77;;;13.30;99.90;;;;;;4875334;29;20092;-75
2022/11/15 12:28:33;;;;;;;3.30;1.80;;;13.30;99.90;;;;;;4878056;29;20389;-76
2022/11/15 12:31:10;;;;;;;2.03;1.50;;;13.30;99.90;;;;;;4894582;29;20044;-69
2022/11/15 12:33:43;;;;;;;;;;;13.20;99.90;;;;;;4877577;29;20056;-76
2022/11/15 12:36:29;;;;;;;2.67;1.60;;;13.20;99.90;;;;;;4890784;29;19926;-76
2022/11/15 12:39:09;;;;;;;2.20;1.37;;;13.20;99.90;;;;;;4892929;29;20618;-76
2022/11/15 12:41:40;;;;;;;2.10;1.50;;;13.30;99.90;;;;;;4893882;29;20681;-70
2022/11/15 12:44:35;;;;;;;3.13;1.60;;;13.20;99.90;;;;;;4893412;29;20097;-70
2022/11/15 12:47:03;;;;;;;1.73;1.23;;;13.20;99.90;;;;;;4891192;29;20132;-69
2022/11/15 12:49:29;;;;;;;3.25;1.60;;;13.20;99.90;;;;;;4878308;29;20143;-70
2022/11/15 12:51:58;;;;;;;2.40;1.40;;;13.10;99.90;;;;;;4900192;29;20076;-70
2022/11/15 12:54:23;;;;;;;2.25;1.50;;;13.10;99.90;;;;;;4893976;29;20048;-70
2022/11/15 12:57:06;;;;;;;2.28;1.33;;;13.10;99.90;;;;;;4893688;29;20040;-70
2022/11/15 12:59:53;;;;;;;2.50;1.30;;;13.20;99.90;;;;;;4864205;29;20080;-70
2022/11/15 13:02:39;;;;;;;1.17;0.80;;;13.30;99.90;;;;;;4905168;29;20052;-70
2022/11/15 13:05:20;;;;;;;1.60;1.13;;;13.60;99.90;;;;;;4896299;29;20044;-70
2022/11/15 13:07:48;;;;;;;2.40;1.27;;;13.80;99.90;;;;;;4886336;29;20044;-76
2022/11/15 13:10:26;;;;;;;3.28;1.52;;;14.00;99.90;;;;;;4910062;29;20171;-77
2022/11/15 13:12:57;;;;;;;2.22;1.33;;;14.20;99.90;;;;;;4896103;29;20037;-76
2022/11/15 13:15:59;;;;;;;1.83;1.30;;;14.30;99.90;;;;;;4896400;29;20127;-77
2022/11/15 13:18:40;;;;;;;2.72;1.70;;;14.40;99.90;;;;;;4823299;29;20050;-70
2022/11/15 13:24:12;;;;;;;2.85;1.80;;;14.30;99.90;;;;;;4894813;29;20064;-71
2022/11/15 13:26:39;;;;;;;2.67;1.70;;;14.00;99.90;;;;;;4878857;29;20059;-71
2022/11/15 13:29:14;;;;;;;2.28;1.70;;;13.80;99.90;;;;;;4876675;29;20523;-76